sensor_id;sensor_type;location;lat;lon;timestamp;P1;durP1;ratioP1;P2;durP2;ratioP2
79747;SDS011;69232;47.488;19.268;2024-02-21T00:00:28;4.22;;;3.03;;
79747;SDS011;69232;47.488;19.268;2024-02-21T00:02:53;6.50;;;4.28;;
79747;SDS011;69232;47.488;19.268;2024-02-21T00:05:19;5.53;;;4.28;;
79747;SDS011;69232;47.488;19.268;2024-02-21T00:07:44;5.85;;;4.32;;
79747;SDS011;69232;47.488;19.268;2024-02-21T00:10:09;6.78;;;4.38;;
79747;SDS011;69232;47.488;19.268;2024-02-21T00:12:35;5.30;;;3.58;;
79747;SDS011;69232;47.488;19.268;2024-02-21T00:15:00;5.70;;;4.28;;
79747;SDS011;69232;47.488;19.268;2024-02-21T00:17:25;4.63;;;4.10;;
79747;SDS011;69232;47.488;19.268;2024-02-21T00:19:51;5.85;;;4.05;;
79747;SDS011;69232;47.488;19.268;2024-02-21T00:22:16;8.30;;;4.78;;
79747;SDS011;69232;47.488;19.268;2024-02-21T00:24:42;5.50;;;3.58;;
79747;SDS011;69232;47.488;19.268;2024-02-21T00:27:07;5.15;;;3.88;;
79747;SDS011;69232;47.488;19.268;2024-02-21T00:29:32;5.85;;;3.38;;
79747;SDS011;69232;47.488;19.268;2024-02-21T00:31:59;5.55;;;4.68;;
79747;SDS011;69232;47.488;19.268;2024-02-21T00:34:24;4.75;;;3.92;;
79747;SDS011;69232;47.488;19.268;2024-02-21T00:36:50;6.10;;;3.95;;
79747;SDS011;69232;47.488;19.268;2024-02-21T00:39:15;4.80;;;3.40;;
79747;SDS011;69232;47.488;19.268;2024-02-21T00:41:40;4.90;;;3.75;;
79747;SDS011;69232;47.488;19.268;2024-02-21T00:44:06;4.68;;;3.45;;
79747;SDS011;69232;47.488;19.268;2024-02-21T00:46:31;4.90;;;3.65;;
79747;SDS011;69232;47.488;19.268;2024-02-21T00:48:57;3.13;;;2.65;;
79747;SDS011;69232;47.488;19.268;2024-02-21T00:51:22;6.00;;;3.40;;
79747;SDS011;69232;47.488;19.268;2024-02-21T00:53:47;5.80;;;3.90;;
79747;SDS011;69232;47.488;19.268;2024-02-21T00:56:13;4.63;;;2.83;;
79747;SDS011;69232;47.488;19.268;2024-02-21T00:58:38;3.00;;;2.30;;
79747;SDS011;69232;47.488;19.268;2024-02-21T01:01:03;5.80;;;2.60;;
79747;SDS011;69232;47.488;19.268;2024-02-21T01:03:29;4.03;;;2.70;;
79747;SDS011;69232;47.488;19.268;2024-02-21T01:05:54;5.30;;;2.75;;
79747;SDS011;69232;47.488;19.268;2024-02-21T01:08:19;3.20;;;2.30;;
79747;SDS011;69232;47.488;19.268;2024-02-21T01:10:45;8.02;;;2.78;;
79747;SDS011;69232;47.488;19.268;2024-02-21T01:13:10;3.80;;;2.45;;
79747;SDS011;69232;47.488;19.268;2024-02-21T01:15:36;6.88;;;2.83;;
79747;SDS011;69232;47.488;19.268;2024-02-21T01:18:01;5.57;;;2.00;;
79747;SDS011;69232;47.488;19.268;2024-02-21T01:20:26;3.78;;;2.47;;
79747;SDS011;69232;47.488;19.268;2024-02-21T01:22:52;5.85;;;2.25;;
79747;SDS011;69232;47.488;19.268;2024-02-21T01:25:17;5.35;;;2.22;;
79747;SDS011;69232;47.488;19.268;2024-02-21T01:27:43;4.47;;;2.78;;
79747;SDS011;69232;47.488;19.268;2024-02-21T01:30:08;2.45;;;1.60;;
79747;SDS011;69232;47.488;19.268;2024-02-21T01:32:35;6.65;;;2.40;;
79747;SDS011;69232;47.488;19.268;2024-02-21T01:35:01;7.22;;;1.70;;
79747;SDS011;69232;47.488;19.268;2024-02-21T01:37:26;6.85;;;2.45;;
79747;SDS011;69232;47.488;19.268;2024-02-21T01:39:52;5.32;;;2.05;;
79747;SDS011;69232;47.488;19.268;2024-02-21T01:42:18;2.35;;;1.58;;
79747;SDS011;69232;47.488;19.268;2024-02-21T01:44:43;2.08;;;1.73;;
79747;SDS011;69232;47.488;19.268;2024-02-21T01:47:09;3.63;;;1.77;;
79747;SDS011;69232;47.488;19.268;2024-02-21T01:49:35;4.28;;;1.50;;
79747;SDS011;69232;47.488;19.268;2024-02-21T01:52:01;1.48;;;1.23;;
79747;SDS011;69232;47.488;19.268;2024-02-21T01:54:28;7.30;;;1.90;;
79747;SDS011;69232;47.488;19.268;2024-02-21T01:56:53;2.25;;;1.52;;
79747;SDS011;69232;47.488;19.268;2024-02-21T01:59:19;1.92;;;1.17;;
79747;SDS011;69232;47.488;19.268;2024-02-21T02:01:44;1.80;;;1.52;;
79747;SDS011;69232;47.488;19.268;2024-02-21T02:04:11;3.63;;;1.58;;
79747;SDS011;69232;47.488;19.268;2024-02-21T02:06:37;2.15;;;1.27;;
79747;SDS011;69232;47.488;19.268;2024-02-21T02:09:02;3.60;;;1.80;;
79747;SDS011;69232;47.488;19.268;2024-02-21T02:11:28;4.28;;;1.70;;
79747;SDS011;69232;47.488;19.268;2024-02-21T02:13:57;3.40;;;1.58;;
79747;SDS011;69232;47.488;19.268;2024-02-21T02:16:22;5.43;;;1.50;;
79747;SDS011;69232;47.488;19.268;2024-02-21T02:18:47;2.80;;;1.88;;
79747;SDS011;69232;47.488;19.268;2024-02-21T02:21:32;4.60;;;1.52;;
79747;SDS011;69232;47.488;19.268;2024-02-21T02:24:00;2.35;;;1.05;;
79747;SDS011;69232;47.488;19.268;2024-02-21T02:26:25;2.75;;;1.70;;
79747;SDS011;69232;47.488;19.268;2024-02-21T02:28:50;3.85;;;2.00;;
79747;SDS011;69232;47.488;19.268;2024-02-21T02:31:16;3.63;;;1.63;;
79747;SDS011;69232;47.488;19.268;2024-02-21T02:33:44;5.40;;;1.73;;
79747;SDS011;69232;47.488;19.268;2024-02-21T02:36:10;4.65;;;1.75;;
79747;SDS011;69232;47.488;19.268;2024-02-21T02:38:35;3.85;;;1.67;;
79747;SDS011;69232;47.488;19.268;2024-02-21T02:41:00;3.30;;;1.80;;
79747;SDS011;69232;47.488;19.268;2024-02-21T02:43:26;4.07;;;1.95;;
79747;SDS011;69232;47.488;19.268;2024-02-21T02:45:51;4.28;;;1.92;;
79747;SDS011;69232;47.488;19.268;2024-02-21T02:48:16;5.05;;;1.73;;
79747;SDS011;69232;47.488;19.268;2024-02-21T02:50:42;3.33;;;1.73;;
79747;SDS011;69232;47.488;19.268;2024-02-21T02:53:07;3.08;;;1.65;;
79747;SDS011;69232;47.488;19.268;2024-02-21T02:55:32;2.30;;;1.63;;
79747;SDS011;69232;47.488;19.268;2024-02-21T02:57:58;3.10;;;1.70;;
79747;SDS011;69232;47.488;19.268;2024-02-21T03:00:23;2.58;;;1.90;;
79747;SDS011;69232;47.488;19.268;2024-02-21T03:02:49;3.58;;;2.00;;
79747;SDS011;69232;47.488;19.268;2024-02-21T03:05:18;2.45;;;1.77;;
79747;SDS011;69232;47.488;19.268;2024-02-21T03:07:45;2.42;;;1.60;;
79747;SDS011;69232;47.488;19.268;2024-02-21T03:10:11;7.38;;;2.28;;
79747;SDS011;69232;47.488;19.268;2024-02-21T03:12:37;2.33;;;1.70;;
79747;SDS011;69232;47.488;19.268;2024-02-21T03:15:03;3.50;;;2.13;;
79747;SDS011;69232;47.488;19.268;2024-02-21T03:17:29;3.13;;;2.38;;
79747;SDS011;69232;47.488;19.268;2024-02-21T03:19:55;2.88;;;1.70;;
79747;SDS011;69232;47.488;19.268;2024-02-21T03:22:20;5.10;;;2.13;;
79747;SDS011;69232;47.488;19.268;2024-02-21T03:24:46;4.80;;;1.95;;
79747;SDS011;69232;47.488;19.268;2024-02-21T03:27:12;2.20;;;1.45;;
79747;SDS011;69232;47.488;19.268;2024-02-21T03:29:37;5.22;;;1.92;;
79747;SDS011;69232;47.488;19.268;2024-02-21T03:32:03;3.33;;;1.75;;
79747;SDS011;69232;47.488;19.268;2024-02-21T03:34:28;2.00;;;1.52;;
79747;SDS011;69232;47.488;19.268;2024-02-21T03:36:54;8.52;;;2.08;;
79747;SDS011;69232;47.488;19.268;2024-02-21T03:39:19;4.35;;;2.20;;
79747;SDS011;69232;47.488;19.268;2024-02-21T03:41:45;8.05;;;1.90;;
79747;SDS011;69232;47.488;19.268;2024-02-21T03:44:10;2.50;;;2.10;;
79747;SDS011;69232;47.488;19.268;2024-02-21T03:46:35;1.95;;;1.60;;
79747;SDS011;69232;47.488;19.268;2024-02-21T03:49:00;2.45;;;1.77;;
79747;SDS011;69232;47.488;19.268;2024-02-21T03:51:26;3.63;;;2.05;;
79747;SDS011;69232;47.488;19.268;2024-02-21T03:53:51;3.42;;;1.63;;
79747;SDS011;69232;47.488;19.268;2024-02-21T03:56:17;4.03;;;2.00;;
79747;SDS011;69232;47.488;19.268;2024-02-21T03:58:42;2.92;;;1.83;;
79747;SDS011;69232;47.488;19.268;2024-02-21T04:01:07;5.57;;;2.22;;
79747;SDS011;69232;47.488;19.268;2024-02-21T04:03:33;5.35;;;1.80;;
79747;SDS011;69232;47.488;19.268;2024-02-21T04:05:58;2.28;;;2.05;;
79747;SDS011;69232;47.488;19.268;2024-02-21T04:08:24;4.18;;;2.00;;
79747;SDS011;69232;47.488;19.268;2024-02-21T04:10:49;3.15;;;1.83;;
79747;SDS011;69232;47.488;19.268;2024-02-21T04:13:14;5.10;;;1.80;;
79747;SDS011;69232;47.488;19.268;2024-02-21T04:15:40;3.28;;;2.25;;
79747;SDS011;69232;47.488;19.268;2024-02-21T04:18:05;4.32;;;1.83;;
79747;SDS011;69232;47.488;19.268;2024-02-21T04:20:31;9.55;;;2.30;;
79747;SDS011;69232;47.488;19.268;2024-02-21T04:22:57;3.97;;;1.70;;
79747;SDS011;69232;47.488;19.268;2024-02-21T04:25:22;5.53;;;2.20;;
79747;SDS011;69232;47.488;19.268;2024-02-21T04:27:48;7.97;;;2.70;;
79747;SDS011;69232;47.488;19.268;2024-02-21T04:30:13;4.72;;;2.58;;
79747;SDS011;69232;47.488;19.268;2024-02-21T04:32:38;6.95;;;2.88;;
79747;SDS011;69232;47.488;19.268;2024-02-21T04:35:04;16.88;;;5.78;;
79747;SDS011;69232;47.488;19.268;2024-02-21T04:37:30;13.38;;;5.05;;
79747;SDS011;69232;47.488;19.268;2024-02-21T04:39:56;6.57;;;2.70;;
79747;SDS011;69232;47.488;19.268;2024-02-21T04:42:21;10.73;;;4.50;;
79747;SDS011;69232;47.488;19.268;2024-02-21T04:44:46;8.70;;;3.80;;
79747;SDS011;69232;47.488;19.268;2024-02-21T04:47:12;9.95;;;3.30;;
79747;SDS011;69232;47.488;19.268;2024-02-21T04:49:38;11.13;;;4.50;;
79747;SDS011;69232;47.488;19.268;2024-02-21T04:52:03;6.85;;;3.53;;
79747;SDS011;69232;47.488;19.268;2024-02-21T04:54:29;15.25;;;5.72;;
79747;SDS011;69232;47.488;19.268;2024-02-21T04:56:54;17.77;;;7.18;;
79747;SDS011;69232;47.488;19.268;2024-02-21T04:59:19;11.00;;;5.00;;
79747;SDS011;69232;47.488;19.268;2024-02-21T05:01:45;10.68;;;4.82;;
79747;SDS011;69232;47.488;19.268;2024-02-21T05:04:10;10.80;;;3.97;;
79747;SDS011;69232;47.488;19.268;2024-02-21T05:06:39;11.32;;;3.53;;
79747;SDS011;69232;47.488;19.268;2024-02-21T05:09:05;6.35;;;3.42;;
79747;SDS011;69232;47.488;19.268;2024-02-21T05:11:31;4.47;;;3.38;;
79747;SDS011;69232;47.488;19.268;2024-02-21T05:13:56;6.60;;;3.25;;
79747;SDS011;69232;47.488;19.268;2024-02-21T05:16:22;8.38;;;3.83;;
79747;SDS011;69232;47.488;19.268;2024-02-21T05:18:47;7.85;;;4.82;;
79747;SDS011;69232;47.488;19.268;2024-02-21T05:21:12;8.85;;;4.30;;
79747;SDS011;69232;47.488;19.268;2024-02-21T05:23:38;7.43;;;4.30;;
79747;SDS011;69232;47.488;19.268;2024-02-21T05:26:04;9.40;;;4.00;;
79747;SDS011;69232;47.488;19.268;2024-02-21T05:28:30;23.33;;;4.78;;
79747;SDS011;69232;47.488;19.268;2024-02-21T05:30:56;10.77;;;4.70;;
79747;SDS011;69232;47.488;19.268;2024-02-21T05:33:21;9.70;;;4.70;;
79747;SDS011;69232;47.488;19.268;2024-02-21T05:35:50;18.88;;;5.68;;
79747;SDS011;69232;47.488;19.268;2024-02-21T05:38:15;37.35;;;12.20;;
79747;SDS011;69232;47.488;19.268;2024-02-21T05:40:41;26.38;;;8.63;;
79747;SDS011;69232;47.488;19.268;2024-02-21T05:43:07;13.95;;;6.13;;
79747;SDS011;69232;47.488;19.268;2024-02-21T05:45:32;10.35;;;4.70;;
79747;SDS011;69232;47.488;19.268;2024-02-21T05:47:58;9.38;;;4.43;;
79747;SDS011;69232;47.488;19.268;2024-02-21T05:50:23;11.95;;;4.07;;
79747;SDS011;69232;47.488;19.268;2024-02-21T05:52:52;6.90;;;3.95;;
79747;SDS011;69232;47.488;19.268;2024-02-21T05:55:18;10.57;;;4.63;;
79747;SDS011;69232;47.488;19.268;2024-02-21T05:57:44;6.45;;;3.83;;
79747;SDS011;69232;47.488;19.268;2024-02-21T06:00:09;6.50;;;4.22;;
79747;SDS011;69232;47.488;19.268;2024-02-21T06:02:35;8.70;;;4.00;;
79747;SDS011;69232;47.488;19.268;2024-02-21T06:05:00;7.20;;;3.75;;
79747;SDS011;69232;47.488;19.268;2024-02-21T06:07:26;7.15;;;4.18;;
79747;SDS011;69232;47.488;19.268;2024-02-21T06:09:51;7.00;;;4.18;;
79747;SDS011;69232;47.488;19.268;2024-02-21T06:12:16;7.72;;;4.15;;
79747;SDS011;69232;47.488;19.268;2024-02-21T06:14:42;8.27;;;4.03;;
79747;SDS011;69232;47.488;19.268;2024-02-21T06:17:07;8.82;;;4.50;;
79747;SDS011;69232;47.488;19.268;2024-02-21T06:19:33;10.40;;;4.82;;
79747;SDS011;69232;47.488;19.268;2024-02-21T06:21:58;6.13;;;4.10;;
79747;SDS011;69232;47.488;19.268;2024-02-21T06:24:23;11.90;;;4.28;;
79747;SDS011;69232;47.488;19.268;2024-02-21T06:26:49;7.00;;;3.75;;
79747;SDS011;69232;47.488;19.268;2024-02-21T06:29:14;7.18;;;4.85;;
79747;SDS011;69232;47.488;19.268;2024-02-21T06:31:40;10.10;;;4.43;;
79747;SDS011;69232;47.488;19.268;2024-02-21T06:34:05;8.07;;;4.22;;
79747;SDS011;69232;47.488;19.268;2024-02-21T06:36:31;7.90;;;5.22;;
79747;SDS011;69232;47.488;19.268;2024-02-21T06:38:56;7.60;;;4.68;;
79747;SDS011;69232;47.488;19.268;2024-02-21T06:41:22;7.25;;;4.60;;
79747;SDS011;69232;47.488;19.268;2024-02-21T06:43:47;9.20;;;4.22;;
79747;SDS011;69232;47.488;19.268;2024-02-21T06:46:22;8.70;;;3.92;;
79747;SDS011;69232;47.488;19.268;2024-02-21T06:48:51;9.40;;;4.78;;
79747;SDS011;69232;47.488;19.268;2024-02-21T06:51:16;5.82;;;4.13;;
79747;SDS011;69232;47.488;19.268;2024-02-21T06:53:41;4.47;;;3.13;;
79747;SDS011;69232;47.488;19.268;2024-02-21T06:56:08;7.38;;;4.15;;
79747;SDS011;69232;47.488;19.268;2024-02-21T06:58:34;6.60;;;4.13;;
79747;SDS011;69232;47.488;19.268;2024-02-21T07:01:00;6.32;;;4.07;;
79747;SDS011;69232;47.488;19.268;2024-02-21T07:03:25;7.45;;;4.18;;
79747;SDS011;69232;47.488;19.268;2024-02-21T07:05:51;9.90;;;5.05;;
79747;SDS011;69232;47.488;19.268;2024-02-21T07:08:16;7.45;;;3.85;;
79747;SDS011;69232;47.488;19.268;2024-02-21T07:10:41;6.57;;;4.30;;
79747;SDS011;69232;47.488;19.268;2024-02-21T07:13:07;5.82;;;3.45;;
79747;SDS011;69232;47.488;19.268;2024-02-21T07:15:32;7.45;;;3.80;;
79747;SDS011;69232;47.488;19.268;2024-02-21T07:17:58;5.65;;;3.85;;
79747;SDS011;69232;47.488;19.268;2024-02-21T07:20:23;13.20;;;4.15;;
79747;SDS011;69232;47.488;19.268;2024-02-21T07:22:50;7.95;;;3.55;;
79747;SDS011;69232;47.488;19.268;2024-02-21T07:25:15;5.35;;;3.60;;
79747;SDS011;69232;47.488;19.268;2024-02-21T07:27:40;8.85;;;4.35;;
79747;SDS011;69232;47.488;19.268;2024-02-21T07:30:07;8.23;;;3.80;;
79747;SDS011;69232;47.488;19.268;2024-02-21T07:32:32;7.57;;;4.18;;
79747;SDS011;69232;47.488;19.268;2024-02-21T07:34:57;5.88;;;3.80;;
79747;SDS011;69232;47.488;19.268;2024-02-21T07:37:23;8.00;;;3.40;;
79747;SDS011;69232;47.488;19.268;2024-02-21T07:39:48;7.90;;;2.97;;
79747;SDS011;69232;47.488;19.268;2024-02-21T07:42:13;8.70;;;3.35;;
79747;SDS011;69232;47.488;19.268;2024-02-21T07:44:40;4.63;;;2.92;;
79747;SDS011;69232;47.488;19.268;2024-02-21T07:47:06;7.10;;;3.25;;
79747;SDS011;69232;47.488;19.268;2024-02-21T07:49:32;6.03;;;2.95;;
79747;SDS011;69232;47.488;19.268;2024-02-21T07:51:57;5.22;;;2.80;;
79747;SDS011;69232;47.488;19.268;2024-02-21T07:54:22;7.15;;;3.00;;
79747;SDS011;69232;47.488;19.268;2024-02-21T07:56:48;5.32;;;2.25;;
79747;SDS011;69232;47.488;19.268;2024-02-21T07:59:13;2.85;;;1.52;;
79747;SDS011;69232;47.488;19.268;2024-02-21T08:01:39;4.30;;;3.13;;
79747;SDS011;69232;47.488;19.268;2024-02-21T08:04:04;3.75;;;2.50;;
79747;SDS011;69232;47.488;19.268;2024-02-21T08:06:31;11.13;;;2.72;;
79747;SDS011;69232;47.488;19.268;2024-02-21T08:08:56;5.60;;;2.65;;
79747;SDS011;69232;47.488;19.268;2024-02-21T08:11:22;3.97;;;2.40;;
79747;SDS011;69232;47.488;19.268;2024-02-21T08:13:47;5.57;;;2.95;;
79747;SDS011;69232;47.488;19.268;2024-02-21T08:16:13;4.05;;;1.92;;
79747;SDS011;69232;47.488;19.268;2024-02-21T08:18:38;4.05;;;2.63;;
79747;SDS011;69232;47.488;19.268;2024-02-21T08:21:04;2.80;;;1.75;;
79747;SDS011;69232;47.488;19.268;2024-02-21T08:23:29;7.47;;;2.33;;
79747;SDS011;69232;47.488;19.268;2024-02-21T08:25:54;9.57;;;2.72;;
79747;SDS011;69232;47.488;19.268;2024-02-21T08:28:20;6.55;;;2.35;;
79747;SDS011;69232;47.488;19.268;2024-02-21T08:30:45;5.03;;;2.55;;
79747;SDS011;69232;47.488;19.268;2024-02-21T08:33:13;6.78;;;2.70;;
79747;SDS011;69232;47.488;19.268;2024-02-21T08:35:40;5.30;;;2.72;;
79747;SDS011;69232;47.488;19.268;2024-02-21T08:38:05;5.20;;;3.05;;
79747;SDS011;69232;47.488;19.268;2024-02-21T08:40:30;7.95;;;2.95;;
79747;SDS011;69232;47.488;19.268;2024-02-21T08:42:56;3.78;;;2.63;;
79747;SDS011;69232;47.488;19.268;2024-02-21T08:45:21;5.30;;;3.83;;
79747;SDS011;69232;47.488;19.268;2024-02-21T08:47:46;3.60;;;1.92;;
79747;SDS011;69232;47.488;19.268;2024-02-21T08:50:12;6.95;;;2.55;;
79747;SDS011;69232;47.488;19.268;2024-02-21T08:52:37;4.40;;;2.35;;
79747;SDS011;69232;47.488;19.268;2024-02-21T08:55:02;6.07;;;1.98;;
79747;SDS011;69232;47.488;19.268;2024-02-21T08:57:28;8.10;;;2.22;;
79747;SDS011;69232;47.488;19.268;2024-02-21T08:59:53;5.32;;;2.30;;
79747;SDS011;69232;47.488;19.268;2024-02-21T09:02:19;4.38;;;2.22;;
79747;SDS011;69232;47.488;19.268;2024-02-21T09:04:44;25.27;;;9.27;;
79747;SDS011;69232;47.488;19.268;2024-02-21T09:07:10;4.72;;;2.35;;
79747;SDS011;69232;47.488;19.268;2024-02-21T09:09:35;6.63;;;2.90;;
79747;SDS011;69232;47.488;19.268;2024-02-21T09:12:03;4.85;;;1.83;;
79747;SDS011;69232;47.488;19.268;2024-02-21T09:14:33;7.38;;;2.38;;
79747;SDS011;69232;47.488;19.268;2024-02-21T09:16:59;8.45;;;2.78;;
79747;SDS011;69232;47.488;19.268;2024-02-21T09:19:24;3.67;;;2.47;;
79747;SDS011;69232;47.488;19.268;2024-02-21T09:21:50;4.47;;;2.58;;
79747;SDS011;69232;47.488;19.268;2024-02-21T09:24:16;5.95;;;2.45;;
79747;SDS011;69232;47.488;19.268;2024-02-21T09:26:42;5.10;;;2.10;;
79747;SDS011;69232;47.488;19.268;2024-02-21T09:29:07;10.50;;;4.45;;
79747;SDS011;69232;47.488;19.268;2024-02-21T09:31:33;8.13;;;3.70;;
79747;SDS011;69232;47.488;19.268;2024-02-21T09:33:58;5.03;;;2.83;;
79747;SDS011;69232;47.488;19.268;2024-02-21T09:36:23;8.63;;;3.95;;
79747;SDS011;69232;47.488;19.268;2024-02-21T09:38:49;24.83;;;11.38;;
79747;SDS011;69232;47.488;19.268;2024-02-21T09:41:15;13.50;;;4.30;;
79747;SDS011;69232;47.488;19.268;2024-02-21T09:43:44;33.75;;;13.85;;
79747;SDS011;69232;47.488;19.268;2024-02-21T09:46:15;39.38;;;14.93;;
79747;SDS011;69232;47.488;19.268;2024-02-21T09:48:50;47.80;;;21.13;;
79747;SDS011;69232;47.488;19.268;2024-02-21T09:51:41;14.35;;;10.07;;
79747;SDS011;69232;47.488;19.268;2024-02-21T09:54:07;12.35;;;3.72;;
79747;SDS011;69232;47.488;19.268;2024-02-21T09:56:32;6.05;;;3.17;;
79747;SDS011;69232;47.488;19.268;2024-02-21T09:58:58;8.10;;;3.30;;
79747;SDS011;69232;47.488;19.268;2024-02-21T10:01:23;7.35;;;3.00;;
79747;SDS011;69232;47.488;19.268;2024-02-21T10:03:49;9.60;;;4.80;;
79747;SDS011;69232;47.488;19.268;2024-02-21T10:06:14;5.28;;;2.38;;
79747;SDS011;69232;47.488;19.268;2024-02-21T10:08:40;8.63;;;3.03;;
79747;SDS011;69232;47.488;19.268;2024-02-21T10:11:05;7.78;;;3.92;;
79747;SDS011;69232;47.488;19.268;2024-02-21T10:13:30;3.75;;;2.30;;
79747;SDS011;69232;47.488;19.268;2024-02-21T10:16:03;4.45;;;2.53;;
79747;SDS011;69232;47.488;19.268;2024-02-21T10:18:29;4.35;;;2.47;;
79747;SDS011;69232;47.488;19.268;2024-02-21T10:23:40;5.80;;;2.70;;
79747;SDS011;69232;47.488;19.268;2024-02-21T10:26:16;4.75;;;1.73;;
79747;SDS011;69232;47.488;19.268;2024-02-21T10:28:42;2.53;;;1.38;;
79747;SDS011;69232;47.488;19.268;2024-02-21T10:31:09;3.47;;;1.83;;
79747;SDS011;69232;47.488;19.268;2024-02-21T10:33:36;4.50;;;2.05;;
79747;SDS011;69232;47.488;19.268;2024-02-21T10:36:09;5.22;;;1.95;;
79747;SDS011;69232;47.488;19.268;2024-02-21T10:38:36;3.95;;;1.90;;
79747;SDS011;69232;47.488;19.268;2024-02-21T10:41:04;3.88;;;2.15;;
79747;SDS011;69232;47.488;19.268;2024-02-21T10:43:39;4.47;;;2.78;;
79747;SDS011;69232;47.488;19.268;2024-02-21T10:46:06;8.10;;;1.90;;
79747;SDS011;69232;47.488;19.268;2024-02-21T10:48:36;4.13;;;1.80;;
79747;SDS011;69232;47.488;19.268;2024-02-21T10:51:13;6.40;;;2.38;;
79747;SDS011;69232;47.488;19.268;2024-02-21T10:53:44;6.47;;;1.88;;
79747;SDS011;69232;47.488;19.268;2024-02-21T10:56:29;5.47;;;2.13;;
79747;SDS011;69232;47.488;19.268;2024-02-21T10:59:01;8.77;;;1.98;;
79747;SDS011;69232;47.488;19.268;2024-02-21T11:01:31;6.38;;;2.28;;
79747;SDS011;69232;47.488;19.268;2024-02-21T11:03:58;6.55;;;1.73;;
79747;SDS011;69232;47.488;19.268;2024-02-21T11:06:24;3.83;;;3.05;;
79747;SDS011;69232;47.488;19.268;2024-02-21T11:09:08;5.25;;;1.77;;
79747;SDS011;69232;47.488;19.268;2024-02-21T11:11:35;10.35;;;5.25;;
79747;SDS011;69232;47.488;19.268;2024-02-21T11:16:38;3.92;;;2.45;;
79747;SDS011;69232;47.488;19.268;2024-02-21T11:19:23;7.25;;;1.98;;
79747;SDS011;69232;47.488;19.268;2024-02-21T11:21:50;5.03;;;1.80;;
79747;SDS011;69232;47.488;19.268;2024-02-21T11:24:29;2.60;;;1.70;;
79747;SDS011;69232;47.488;19.268;2024-02-21T11:26:56;4.35;;;1.35;;
79747;SDS011;69232;47.488;19.268;2024-02-21T11:29:25;8.73;;;1.60;;
79747;SDS011;69232;47.488;19.268;2024-02-21T11:31:51;5.50;;;1.38;;
79747;SDS011;69232;47.488;19.268;2024-02-21T11:34:17;1.50;;;1.30;;
79747;SDS011;69232;47.488;19.268;2024-02-21T11:36:50;3.50;;;1.10;;
79747;SDS011;69232;47.488;19.268;2024-02-21T11:39:24;6.85;;;1.40;;
79747;SDS011;69232;47.488;19.268;2024-02-21T11:42:03;2.58;;;1.70;;
79747;SDS011;69232;47.488;19.268;2024-02-21T11:44:29;9.85;;;1.80;;
79747;SDS011;69232;47.488;19.268;2024-02-21T11:46:56;3.08;;;1.42;;
79747;SDS011;69232;47.488;19.268;2024-02-21T11:49:21;8.95;;;2.70;;
79747;SDS011;69232;47.488;19.268;2024-02-21T11:51:47;4.63;;;1.40;;
79747;SDS011;69232;47.488;19.268;2024-02-21T11:54:13;7.43;;;2.25;;
79747;SDS011;69232;47.488;19.268;2024-02-21T11:56:41;5.70;;;1.75;;
79747;SDS011;69232;47.488;19.268;2024-02-21T11:59:06;10.13;;;2.38;;
79747;SDS011;69232;47.488;19.268;2024-02-21T12:01:33;3.65;;;2.00;;
79747;SDS011;69232;47.488;19.268;2024-02-21T12:03:59;8.38;;;1.35;;
79747;SDS011;69232;47.488;19.268;2024-02-21T12:06:24;3.35;;;1.80;;
79747;SDS011;69232;47.488;19.268;2024-02-21T12:08:49;4.00;;;1.58;;
79747;SDS011;69232;47.488;19.268;2024-02-21T12:11:15;6.45;;;1.98;;
79747;SDS011;69232;47.488;19.268;2024-02-21T12:13:43;5.68;;;1.98;;
79747;SDS011;69232;47.488;19.268;2024-02-21T12:16:08;3.40;;;1.77;;
79747;SDS011;69232;47.488;19.268;2024-02-21T12:18:34;8.63;;;1.95;;
79747;SDS011;69232;47.488;19.268;2024-02-21T12:20:59;5.22;;;2.40;;
79747;SDS011;69232;47.488;19.268;2024-02-21T12:23:29;5.28;;;1.95;;
79747;SDS011;69232;47.488;19.268;2024-02-21T12:25:54;4.05;;;2.10;;
79747;SDS011;69232;47.488;19.268;2024-02-21T12:28:20;6.97;;;2.83;;
79747;SDS011;69232;47.488;19.268;2024-02-21T12:30:46;8.10;;;1.80;;
79747;SDS011;69232;47.488;19.268;2024-02-21T12:33:12;8.55;;;2.10;;
79747;SDS011;69232;47.488;19.268;2024-02-21T12:35:39;4.03;;;1.90;;
79747;SDS011;69232;47.488;19.268;2024-02-21T12:38:04;12.73;;;2.45;;
79747;SDS011;69232;47.488;19.268;2024-02-21T12:40:30;4.47;;;1.88;;
79747;SDS011;69232;47.488;19.268;2024-02-21T12:42:59;12.88;;;2.45;;
79747;SDS011;69232;47.488;19.268;2024-02-21T12:45:25;8.25;;;2.30;;
79747;SDS011;69232;47.488;19.268;2024-02-21T12:47:50;9.50;;;2.53;;
79747;SDS011;69232;47.488;19.268;2024-02-21T12:50:16;4.90;;;2.20;;
79747;SDS011;69232;47.488;19.268;2024-02-21T12:52:41;8.13;;;2.60;;
79747;SDS011;69232;47.488;19.268;2024-02-21T12:55:06;2.95;;;1.98;;
79747;SDS011;69232;47.488;19.268;2024-02-21T12:57:35;4.78;;;2.05;;
79747;SDS011;69232;47.488;19.268;2024-02-21T13:00:00;8.10;;;2.50;;
79747;SDS011;69232;47.488;19.268;2024-02-21T13:02:25;7.05;;;2.58;;
79747;SDS011;69232;47.488;19.268;2024-02-21T13:04:51;6.53;;;1.67;;
79747;SDS011;69232;47.488;19.268;2024-02-21T13:07:16;6.18;;;2.15;;
79747;SDS011;69232;47.488;19.268;2024-02-21T13:09:41;5.55;;;2.05;;
79747;SDS011;69232;47.488;19.268;2024-02-21T13:12:07;9.45;;;2.10;;
79747;SDS011;69232;47.488;19.268;2024-02-21T13:14:32;3.05;;;1.85;;
79747;SDS011;69232;47.488;19.268;2024-02-21T13:17:00;11.13;;;2.40;;
79747;SDS011;69232;47.488;19.268;2024-02-21T13:19:25;6.18;;;2.50;;
79747;SDS011;69232;47.488;19.268;2024-02-21T13:21:50;7.10;;;2.03;;
79747;SDS011;69232;47.488;19.268;2024-02-21T13:24:16;6.10;;;2.40;;
79747;SDS011;69232;47.488;19.268;2024-02-21T13:26:41;8.93;;;2.60;;
79747;SDS011;69232;47.488;19.268;2024-02-21T13:29:06;5.10;;;2.00;;
79747;SDS011;69232;47.488;19.268;2024-02-21T13:31:32;8.82;;;2.35;;
79747;SDS011;69232;47.488;19.268;2024-02-21T13:33:57;12.60;;;4.43;;
79747;SDS011;69232;47.488;19.268;2024-02-21T13:36:22;7.50;;;2.90;;
79747;SDS011;69232;47.488;19.268;2024-02-21T13:38:48;5.20;;;2.45;;
79747;SDS011;69232;47.488;19.268;2024-02-21T13:41:14;3.00;;;2.08;;
79747;SDS011;69232;47.488;19.268;2024-02-21T13:43:39;8.35;;;2.30;;
79747;SDS011;69232;47.488;19.268;2024-02-21T13:46:04;9.00;;;2.30;;
79747;SDS011;69232;47.488;19.268;2024-02-21T13:48:34;6.97;;;2.38;;
79747;SDS011;69232;47.488;19.268;2024-02-21T13:51:00;3.65;;;2.08;;
79747;SDS011;69232;47.488;19.268;2024-02-21T13:53:27;5.40;;;1.77;;
79747;SDS011;69232;47.488;19.268;2024-02-21T13:55:53;10.43;;;2.35;;
79747;SDS011;69232;47.488;19.268;2024-02-21T13:58:18;6.80;;;2.03;;
79747;SDS011;69232;47.488;19.268;2024-02-21T14:00:43;5.07;;;2.63;;
79747;SDS011;69232;47.488;19.268;2024-02-21T14:03:09;7.03;;;2.03;;
79747;SDS011;69232;47.488;19.268;2024-02-21T14:05:34;9.90;;;2.38;;
79747;SDS011;69232;47.488;19.268;2024-02-21T14:08:00;5.13;;;2.20;;
79747;SDS011;69232;47.488;19.268;2024-02-21T14:10:25;4.72;;;1.50;;
79747;SDS011;69232;47.488;19.268;2024-02-21T14:12:50;4.68;;;2.05;;
79747;SDS011;69232;47.488;19.268;2024-02-21T14:15:16;6.28;;;2.20;;
79747;SDS011;69232;47.488;19.268;2024-02-21T14:17:41;7.30;;;2.80;;
79747;SDS011;69232;47.488;19.268;2024-02-21T14:20:07;16.10;;;4.95;;
79747;SDS011;69232;47.488;19.268;2024-02-21T14:22:33;4.40;;;2.47;;
79747;SDS011;69232;47.488;19.268;2024-02-21T14:24:59;4.25;;;1.77;;
79747;SDS011;69232;47.488;19.268;2024-02-21T14:27:25;6.05;;;1.70;;
79747;SDS011;69232;47.488;19.268;2024-02-21T14:29:50;3.67;;;1.40;;
79747;SDS011;69232;47.488;19.268;2024-02-21T14:32:15;6.80;;;1.75;;